Aviation Digital Data Service (ADDS)

Output produced by METARs form (1524 UTC 19 January 2018)
found at http://aviationweather.gov/adds/metars/
 
KBPT 191453Z 07005KT 10SM OVC060 06/M01 A3034 RMK AO2 SLP274 T00561006 53003